Time;durP1;ratioP1;P1;durP2;ratioP2;P2;SDS_P1;SDS_P2;PMS_P1;PMS_P2;Temp;Humidity;BMP_temperature;BMP_pressure;BME280_temperature;BME280_humidity;BME280_pressure;Samples;Min_cycle;Max_cycle;Signal;HPM_P1;HPM_P2
2023/04/19 00:01:23;;;;;;;13.67;11.40;;;11.50;1.00;;;;;;5048698;28;20268;-57
2023/04/19 00:03:49;;;;;;;12.07;10.53;;;11.60;1.00;;;;;;5045231;28;20466;-54
2023/04/19 00:06:15;;;;;;;13.93;10.07;;;11.70;1.00;;;;;;5047313;28;20429;-54
2023/04/19 00:08:42;;;;;;;11.70;10.40;;;11.70;1.00;;;;;;5050541;28;20439;-54
2023/04/19 00:11:08;;;;;;;12.00;9.83;;;11.70;1.00;;;;;;5049455;28;20447;-56
2023/04/19 00:13:34;;;;;;;10.70;9.57;;;11.70;1.00;;;;;;5046126;28;20817;-55
2023/04/19 00:15:59;;;;;;;14.30;9.33;;;11.60;1.00;;;;;;5055086;28;20417;-55
2023/04/19 00:18:25;;;;;;;11.20;9.93;;;11.60;1.00;;;;;;5064778;28;20634;-55
2023/04/19 00:20:51;;;;;;;11.80;10.33;;;11.60;1.00;;;;;;5051529;28;20208;-55
2023/04/19 00:23:16;;;;;;;13.23;10.80;;;11.70;1.00;;;;;;5051367;28;20188;-55
2023/04/19 00:25:42;;;;;;;15.73;10.83;;;11.60;1.00;;;;;;5049973;28;20468;-54
2023/04/19 00:28:08;;;;;;;11.40;10.07;;;11.50;1.00;;;;;;5047351;28;20184;-54
2023/04/19 00:30:33;;;;;;;13.13;9.97;;;11.50;1.00;;;;;;5047565;28;20214;-54
2023/04/19 00:32:59;;;;;;;10.90;9.70;;;11.50;1.00;;;;;;5049019;28;20234;-55
2023/04/19 00:35:24;;;;;;;11.07;8.10;;;11.50;1.00;;;;;;5047423;28;20634;-53
2023/04/19 00:37:50;;;;;;;11.33;9.77;;;11.40;1.00;;;;;;5051115;28;20192;-55
2023/04/19 00:40:16;;;;;;;11.87;8.70;;;11.40;1.00;;;;;;5046326;28;20271;-55
2023/04/19 00:42:41;;;;;;;9.60;8.10;;;11.40;1.00;;;;;;5050044;28;20722;-53
2023/04/19 00:45:08;;;;;;;9.30;8.00;;;11.40;1.00;;;;;;5047499;28;20674;-53
2023/04/19 00:47:35;;;;;;;9.53;7.40;;;11.50;1.00;;;;;;5049329;28;20192;-55
2023/04/19 00:50:02;;;;;;;9.53;8.40;;;11.50;1.00;;;;;;5054078;28;20942;-54
2023/04/19 00:52:28;;;;;;;7.87;7.10;;;11.60;1.00;;;;;;5065774;28;20617;-54
2023/04/19 00:54:56;;;;;;;9.37;8.47;;;11.60;1.00;;;;;;5051949;28;20566;-54
2023/04/19 00:57:23;;;;;;;11.80;8.20;;;11.60;1.00;;;;;;5044846;28;20219;-56
2023/04/19 00:59:50;;;;;;;10.30;8.80;;;11.50;1.00;;;;;;5050902;28;20424;-55
2023/04/19 01:02:16;;;;;;;9.57;8.37;;;11.00;1.00;;;;;;5051552;28;20536;-53
2023/04/19 01:04:41;;;;;;;10.83;8.80;;;11.40;1.00;;;;;;5049984;28;20473;-54
2023/04/19 01:07:08;;;;;;;10.00;8.03;;;11.40;1.00;;;;;;5045388;28;20477;-53
2023/04/19 01:09:33;;;;;;;12.30;9.93;;;11.20;1.00;;;;;;5047427;28;20195;-55
2023/04/19 01:12:03;;;;;;;10.60;7.87;;;11.10;1.00;;;;;;5047201;28;20474;-53
2023/04/19 01:14:28;;;;;;;9.53;7.90;;;11.00;1.00;;;;;;5046617;28;20196;-53
2023/04/19 01:16:56;;;;;;;12.20;8.90;;;11.00;1.00;;;;;;5049121;28;20461;-54
2023/04/19 01:19:22;;;;;;;9.47;8.17;;;11.10;1.00;;;;;;5059734;28;20180;-55
2023/04/19 01:21:47;;;;;;;10.60;8.87;;;11.10;1.00;;;;;;5048469;28;20812;-53
2023/04/19 01:24:13;;;;;;;9.67;8.67;;;11.10;1.00;;;;;;5046978;28;20197;-54
2023/04/19 01:26:39;;;;;;;9.60;7.80;;;11.00;1.00;;;;;;5052550;28;20196;-54
2023/04/19 01:29:04;;;;;;;10.63;8.40;;;11.10;1.00;;;;;;5047750;28;20200;-54
2023/04/19 01:31:30;;;;;;;12.83;7.70;;;11.20;1.00;;;;;;5048385;28;20211;-55
2023/04/19 01:33:56;;;;;;;9.67;8.23;;;11.20;1.00;;;;;;5052236;28;20184;-54
2023/04/19 01:36:21;;;;;;;9.13;7.33;;;11.20;1.00;;;;;;5054987;28;20176;-54
2023/04/19 01:38:47;;;;;;;13.93;7.93;;;11.20;1.00;;;;;;5044095;28;20263;-54
2023/04/19 01:41:13;;;;;;;8.33;7.53;;;11.10;1.00;;;;;;5055135;28;20177;-54
2023/04/19 01:43:38;;;;;;;8.93;8.00;;;11.10;1.00;;;;;;5051453;28;20187;-56
2023/04/19 01:46:04;;;;;;;10.70;8.90;;;11.00;1.00;;;;;;5055120;28;20180;-54
2023/04/19 01:48:29;;;;;;;9.20;7.77;;;11.00;1.00;;;;;;5048088;28;20528;-54
2023/04/19 01:50:55;;;;;;;8.83;7.93;;;11.00;1.00;;;;;;5048367;28;20180;-53
2023/04/19 01:53:21;;;;;;;9.10;8.00;;;10.90;1.00;;;;;;5048141;28;20231;-55
2023/04/19 01:55:46;;;;;;;10.73;8.40;;;10.90;1.00;;;;;;5044169;28;20228;-55
2023/04/19 01:58:12;;;;;;;9.90;8.53;;;10.90;1.00;;;;;;5047342;28;20211;-55
2023/04/19 02:00:38;;;;;;;10.47;8.77;;;10.80;1.00;;;;;;5046769;28;20673;-55
2023/04/19 02:03:03;;;;;;;11.30;8.80;;;10.80;1.00;;;;;;5048934;28;20184;-53
2023/04/19 02:05:29;;;;;;;11.07;8.60;;;10.70;1.00;;;;;;5051235;28;20192;-54
2023/04/19 02:07:55;;;;;;;10.47;9.07;;;10.60;1.00;;;;;;5057730;28;20216;-55
2023/04/19 02:10:20;;;;;;;10.27;8.40;;;10.60;1.00;;;;;;5055352;28;20192;-56
2023/04/19 02:12:46;;;;;;;9.87;8.50;;;10.70;1.00;;;;;;5046181;28;20222;-55
2023/04/19 02:15:11;;;;;;;8.73;7.70;;;10.70;1.00;;;;;;5045992;28;20185;-55
2023/04/19 02:17:37;;;;;;;10.07;7.63;;;10.80;1.00;;;;;;5047032;28;20528;-54
2023/04/19 02:20:04;;;;;;;10.57;9.00;;;10.80;1.00;;;;;;5047556;28;20176;-55
2023/04/19 02:22:30;;;;;;;10.17;8.80;;;10.80;1.00;;;;;;5048659;28;20241;-55
2023/04/19 02:24:55;;;;;;;9.23;7.97;;;10.90;1.00;;;;;;5044845;28;21700;-56
2023/04/19 02:27:21;;;;;;;9.77;8.77;;;10.90;1.00;;;;;;5054306;28;20683;-55
2023/04/19 02:29:47;;;;;;;12.27;9.20;;;10.80;1.00;;;;;;5045557;28;20189;-55
2023/04/19 02:32:12;;;;;;;13.97;10.60;;;10.80;1.00;;;;;;5054597;28;20282;-53
2023/04/19 02:34:38;;;;;;;12.60;9.23;;;10.80;1.00;;;;;;5051550;28;20203;-55
2023/04/19 02:37:04;;;;;;;14.23;9.53;;;10.80;1.00;;;;;;5049183;28;21925;-55
2023/04/19 02:39:30;;;;;;;15.67;10.20;;;10.70;1.00;;;;;;5045124;28;20184;-55
2023/04/19 02:41:55;;;;;;;9.67;8.30;;;10.80;1.00;;;;;;5050064;28;20210;-52
2023/04/19 02:44:21;;;;;;;12.93;8.70;;;10.80;1.00;;;;;;5047713;28;20654;-54
2023/04/19 02:46:53;;;;;;;10.67;9.03;;;10.90;1.00;;;;;;5045242;28;20195;-54
2023/04/19 02:49:19;;;;;;;11.73;9.37;;;10.90;1.00;;;;;;5064320;28;20187;-54
2023/04/19 02:51:46;;;;;;;13.23;8.40;;;10.80;1.00;;;;;;5044693;28;20490;-54
2023/04/19 02:54:12;;;;;;;10.90;9.73;;;10.90;1.00;;;;;;5048831;28;20421;-54
2023/04/19 02:56:38;;;;;;;9.50;8.40;;;10.90;1.00;;;;;;5058015;28;20571;-55
2023/04/19 02:59:04;;;;;;;10.50;8.90;;;10.80;1.00;;;;;;5045555;28;20513;-54
2023/04/19 03:01:30;;;;;;;12.20;9.23;;;11.00;1.00;;;;;;5045570;28;20227;-53
2023/04/19 03:03:56;;;;;;;10.20;8.77;;;10.80;1.00;;;;;;5043693;28;20454;-54
2023/04/19 03:06:22;;;;;;;10.50;8.30;;;10.80;1.00;;;;;;5044478;28;20430;-55
2023/04/19 03:08:48;;;;;;;12.10;8.93;;;10.80;1.00;;;;;;5045599;28;20454;-54
2023/04/19 03:11:15;;;;;;;9.80;8.80;;;10.70;1.00;;;;;;5045580;28;20200;-56
2023/04/19 03:13:41;;;;;;;12.30;9.00;;;10.80;1.00;;;;;;5048508;28;20756;-54
2023/04/19 03:16:08;;;;;;;11.23;9.60;;;10.70;1.00;;;;;;5059194;28;20454;-55
2023/04/19 03:18:34;;;;;;;10.20;9.10;;;10.60;1.00;;;;;;5049970;28;20535;-54
2023/04/19 03:21:00;;;;;;;11.13;10.03;;;10.60;1.00;;;;;;5048522;28;20961;-55
2023/04/19 03:23:26;;;;;;;11.60;10.30;;;10.60;1.00;;;;;;5047976;28;20934;-54
2023/04/19 03:25:52;;;;;;;14.00;11.20;;;10.50;1.00;;;;;;5046386;28;20827;-54
2023/04/19 03:28:17;;;;;;;14.83;11.80;;;10.60;1.00;;;;;;5056873;28;20473;-54
2023/04/19 03:30:43;;;;;;;13.97;11.17;;;10.50;1.00;;;;;;5047854;28;20661;-55
2023/04/19 03:33:08;;;;;;;15.83;12.10;;;10.40;1.00;;;;;;5048605;28;20687;-54
2023/04/19 03:35:34;;;;;;;13.10;11.70;;;10.50;1.00;;;;;;5057163;28;20187;-53
2023/04/19 03:38:00;;;;;;;15.53;12.10;;;10.50;1.00;;;;;;5046036;28;20181;-55
2023/04/19 03:40:26;;;;;;;13.83;11.70;;;10.40;1.00;;;;;;5051394;28;20262;-55
2023/04/19 03:42:51;;;;;;;15.90;12.30;;;10.40;1.00;;;;;;5054558;28;20258;-54
2023/04/19 03:45:17;;;;;;;13.90;12.03;;;10.30;1.00;;;;;;5054626;28;20180;-54
2023/04/19 03:47:43;;;;;;;16.20;13.43;;;10.40;1.00;;;;;;5053386;28;20279;-53
2023/04/19 03:50:09;;;;;;;17.23;13.80;;;10.40;1.00;;;;;;5052408;28;20196;-54
2023/04/19 03:52:34;;;;;;;17.23;13.50;;;10.30;1.00;;;;;;5055306;28;20217;-53
2023/04/19 03:55:00;;;;;;;15.10;13.10;;;10.30;1.00;;;;;;5049170;28;21081;-54
2023/04/19 03:57:26;;;;;;;15.43;12.63;;;10.30;1.00;;;;;;5047186;28;20189;-55
2023/04/19 03:59:51;;;;;;;16.30;12.43;;;10.20;1.00;;;;;;5050491;28;20204;-53
2023/04/19 04:02:17;;;;;;;16.40;13.50;;;10.20;1.00;;;;;;5049166;28;20184;-54
2023/04/19 04:04:42;;;;;;;18.23;11.97;;;10.30;1.00;;;;;;5055569;28;20224;-53
2023/04/19 04:07:08;;;;;;;15.10;13.40;;;10.40;1.00;;;;;;5048934;28;20193;-56
2023/04/19 04:09:34;;;;;;;14.73;13.20;;;10.20;1.00;;;;;;5048647;28;20656;-54
2023/04/19 04:11:59;;;;;;;13.97;12.47;;;10.20;1.00;;;;;;5049575;28;20214;-55
2023/04/19 04:14:25;;;;;;;14.23;12.70;;;10.20;1.00;;;;;;5060247;28;20195;-56
2023/04/19 04:16:50;;;;;;;14.80;12.60;;;10.30;1.00;;;;;;5053866;28;20677;-55
2023/04/19 04:19:16;;;;;;;16.13;12.10;;;10.30;1.00;;;;;;5047254;28;20184;-55
2023/04/19 04:21:42;;;;;;;17.37;10.97;;;10.30;1.00;;;;;;5048618;28;20212;-54
2023/04/19 04:24:08;;;;;;;13.90;11.10;;;10.30;1.00;;;;;;5053074;28;20421;-54
2023/04/19 04:26:34;;;;;;;11.73;10.53;;;10.20;1.00;;;;;;5048543;28;20856;-54
2023/04/19 04:29:03;;;;;;;13.53;10.30;;;10.20;1.00;;;;;;5049508;28;20462;-54
2023/04/19 04:31:30;;;;;;;12.43;10.30;;;10.10;1.00;;;;;;5045433;28;20208;-54
2023/04/19 04:33:56;;;;;;;12.63;10.10;;;10.10;1.00;;;;;;5046156;28;20437;-55
2023/04/19 04:36:21;;;;;;;11.63;10.43;;;10.10;1.00;;;;;;5051294;28;20768;-56
2023/04/19 04:38:47;;;;;;;9.97;8.87;;;10.10;1.00;;;;;;5046349;28;20269;-55
2023/04/19 04:41:13;;;;;;;10.30;9.30;;;10.20;1.00;;;;;;5047914;28;20196;-55
2023/04/19 04:43:38;;;;;;;13.33;9.77;;;10.10;1.00;;;;;;5048367;28;20303;-54
2023/04/19 04:46:04;;;;;;;10.00;8.30;;;10.00;1.00;;;;;;5045286;28;20195;-54
2023/04/19 04:48:30;;;;;;;10.57;8.90;;;10.00;1.00;;;;;;5061652;28;20195;-55
2023/04/19 04:50:56;;;;;;;9.37;8.37;;;9.80;1.00;;;;;;5070223;28;21026;-54
2023/04/19 04:53:26;;;;;;;9.60;8.20;;;9.60;1.00;;;;;;5046112;28;20497;-53
2023/04/19 04:55:55;;;;;;;13.97;8.90;;;9.60;1.00;;;;;;5047643;28;20573;-55
2023/04/19 04:58:20;;;;;;;12.17;7.70;;;9.70;1.00;;;;;;5046394;28;21001;-52
2023/04/19 05:00:47;;;;;;;9.57;7.23;;;9.70;1.00;;;;;;5042462;28;20505;-54
2023/04/19 05:03:13;;;;;;;11.70;7.67;;;9.80;1.00;;;;;;5048050;28;20254;-53
2023/04/19 05:05:39;;;;;;;12.23;7.87;;;9.80;1.00;;;;;;5048082;28;20447;-55
2023/04/19 05:08:05;;;;;;;10.30;7.20;;;9.70;1.00;;;;;;5042167;28;20453;-53
2023/04/19 05:10:31;;;;;;;9.20;6.53;;;9.60;1.00;;;;;;5047539;28;20643;-54
2023/04/19 05:12:56;;;;;;;8.50;6.97;;;9.70;1.00;;;;;;5044264;28;20223;-54
2023/04/19 05:15:22;;;;;;;7.37;6.03;;;9.80;1.00;;;;;;5048451;28;20189;-54
2023/04/19 05:17:48;;;;;;;8.50;5.87;;;9.80;1.00;;;;;;5047442;28;20181;-54
2023/04/19 05:20:13;;;;;;;10.53;5.90;;;9.90;1.00;;;;;;5049191;28;20197;-54
2023/04/19 05:22:39;;;;;;;7.20;5.17;;;9.90;1.00;;;;;;5049347;28;20192;-54
2023/04/19 05:25:05;;;;;;;5.90;4.93;;;10.00;1.00;;;;;;5049255;28;20231;-54
2023/04/19 05:27:31;;;;;;;9.97;6.00;;;10.10;1.00;;;;;;5048517;28;20196;-54
2023/04/19 05:29:56;;;;;;;5.50;5.00;;;10.20;1.00;;;;;;5048612;28;20439;-54
2023/04/19 05:32:22;;;;;;;5.30;4.80;;;10.10;1.00;;;;;;5051146;28;20200;-54
2023/04/19 05:34:48;;;;;;;7.53;6.10;;;10.00;1.00;;;;;;5049293;28;20185;-54
2023/04/19 05:37:13;;;;;;;6.63;5.90;;;9.90;1.00;;;;;;5048517;28;20246;-56
2023/04/19 05:39:39;;;;;;;7.63;4.90;;;9.90;1.00;;;;;;5054674;28;20181;-55
2023/04/19 05:42:04;;;;;;;6.67;4.30;;;9.70;1.00;;;;;;5049311;28;20204;-56
2023/04/19 05:44:30;;;;;;;7.30;5.17;;;9.80;1.00;;;;;;5056009;28;20189;-55
2023/04/19 05:46:56;;;;;;;7.50;5.10;;;9.70;1.00;;;;;;5053199;28;20192;-52
2023/04/19 05:49:21;;;;;;;7.87;7.07;;;9.50;1.00;;;;;;5046527;28;20268;-55
2023/04/19 05:51:47;;;;;;;4.60;3.90;;;9.40;1.00;;;;;;5064506;28;20558;-55
2023/04/19 05:54:13;;;;;;;5.73;3.77;;;9.50;1.00;;;;;;5066838;28;20214;-56
2023/04/19 05:56:39;;;;;;;8.40;4.23;;;9.60;1.00;;;;;;5067794;28;20598;-53
2023/04/19 05:59:05;;;;;;;6.10;3.97;;;9.70;1.00;;;;;;5054628;28;20188;-55
2023/04/19 06:05:06;;;;;;;3.73;3.43;;;10.20;1.00;;;;;;5049053;28;21391;-55
2023/04/19 06:07:32;;;;;;;4.53;3.27;;;9.50;99.90;;;;;;5058695;28;20438;-53
2023/04/19 06:09:57;;;;;;;5.17;3.27;;;9.30;99.90;;;;;;5042911;28;20477;-53
2023/04/19 06:12:23;;;;;;;5.93;3.10;;;9.20;99.90;;;;;;5039429;28;20257;-53
2023/04/19 06:14:50;;;;;;;4.00;3.43;;;9.30;99.90;;;;;;5044708;28;20288;-53
2023/04/19 06:17:15;;;;;;;6.27;3.07;;;9.40;99.90;;;;;;5044612;28;20196;-54
2023/04/19 06:19:41;;;;;;;9.83;3.20;;;9.70;99.90;;;;;;5042387;28;20417;-55
2023/04/19 06:22:07;;;;;;;7.93;3.37;;;10.10;99.90;;;;;;5043037;28;20189;-54
2023/04/19 06:24:33;;;;;;;3.30;2.97;;;10.20;99.90;;;;;;5044787;28;21144;-54
2023/04/19 06:26:58;;;;;;;6.97;3.50;;;10.30;99.90;;;;;;5046983;28;20196;-54
2023/04/19 06:29:24;;;;;;;6.90;3.63;;;10.50;99.90;;;;;;5044803;28;20521;-54
2023/04/19 06:31:50;;;;;;;3.57;3.27;;;10.70;99.90;;;;;;5051454;28;20250;-55
2023/04/19 06:34:16;;;;;;;4.93;3.30;;;10.80;99.90;;;;;;5046903;28;20176;-55
2023/04/19 06:36:41;;;;;;;6.63;3.70;;;11.00;99.90;;;;;;5049535;28;20188;-54
2023/04/19 06:39:07;;;;;;;7.70;4.20;;;10.80;99.90;;;;;;5048305;28;20263;-56
2023/04/19 06:41:33;;;;;;;4.60;3.47;;;10.70;99.90;;;;;;5042894;28;20188;-54
2023/04/19 06:43:58;;;;;;;5.87;3.50;;;10.80;99.90;;;;;;5044419;28;20222;-54
2023/04/19 06:46:26;;;;;;;3.77;3.03;;;10.70;99.90;;;;;;5045932;28;20270;-54
2023/04/19 06:48:51;;;;;;;5.13;2.70;;;10.70;99.90;;;;;;5050076;28;20285;-69
2023/04/19 06:51:17;;;;;;;3.00;2.70;;;10.80;99.90;;;;;;5059700;28;20457;-56
2023/04/19 06:53:43;;;;;;;6.00;3.37;;;10.60;99.90;;;;;;5052350;28;20310;-56
2023/04/19 06:56:09;;;;;;;4.37;2.50;;;10.50;99.90;;;;;;5043959;28;20220;-55
2023/04/19 06:58:35;;;;;;;2.53;2.33;;;10.60;99.90;;;;;;5051036;28;20428;-54
2023/04/19 07:01:03;;;;;;;3.70;3.10;;;10.70;99.90;;;;;;5047457;28;20430;-54
2023/04/19 07:03:28;;;;;;;6.77;2.93;;;10.70;99.90;;;;;;5051051;28;20192;-55
2023/04/19 07:05:57;;;;;;;3.73;3.03;;;10.70;99.90;;;;;;5049188;28;20446;-54
2023/04/19 07:08:23;;;;;;;4.47;3.00;;;10.70;99.90;;;;;;5051282;28;20240;-55
2023/04/19 07:10:49;;;;;;;4.00;3.10;;;10.60;99.90;;;;;;5050661;28;20450;-56
2023/04/19 07:13:15;;;;;;;9.47;3.00;;;10.50;99.90;;;;;;5050941;28;20760;-54
2023/04/19 07:15:40;;;;;;;3.93;3.40;;;10.50;99.90;;;;;;5052348;28;20184;-54
2023/04/19 07:18:06;;;;;;;6.00;2.90;;;10.60;99.90;;;;;;5052225;28;20185;-53
2023/04/19 07:20:32;;;;;;;4.37;3.03;;;10.80;99.90;;;;;;5049668;28;20230;-54
2023/04/19 07:22:58;;;;;;;4.20;3.80;;;11.10;99.90;;;;;;5047475;28;20426;-54
2023/04/19 07:25:24;;;;;;;3.57;3.07;;;11.10;99.90;;;;;;5050281;28;20436;-54
2023/04/19 07:27:52;;;;;;;7.17;3.20;;;11.20;99.90;;;;;;5050535;28;20790;-53
2023/04/19 07:30:18;;;;;;;6.73;2.57;;;11.20;99.90;;;;;;5051594;28;20455;-53
2023/04/19 07:32:45;;;;;;;5.50;2.97;;;11.20;99.90;;;;;;5051465;28;21130;-54
2023/04/19 07:35:11;;;;;;;4.03;2.80;;;11.30;99.90;;;;;;5049134;28;20188;-56
2023/04/19 07:37:36;;;;;;;3.10;2.80;;;11.40;99.90;;;;;;5058366;28;20416;-55
2023/04/19 07:40:02;;;;;;;3.00;2.70;;;11.40;99.90;;;;;;5071279;28;20215;-52
2023/04/19 07:42:29;;;;;;;6.03;3.17;;;11.50;99.90;;;;;;5068623;28;20246;-54
2023/04/19 07:44:55;;;;;;;3.80;3.40;;;11.60;99.90;;;;;;5060828;28;20497;-53
2023/04/19 07:47:20;;;;;;;3.53;2.73;;;11.60;99.90;;;;;;5066290;28;20546;-54
2023/04/19 07:49:46;;;;;;;3.90;3.30;;;11.80;99.90;;;;;;5058573;28;20565;-54
2023/04/19 07:52:12;;;;;;;6.70;3.47;;;11.70;99.90;;;;;;5053966;28;20211;-54
2023/04/19 07:54:40;;;;;;;4.03;2.80;;;11.90;99.90;;;;;;5058742;28;20224;-55
2023/04/19 07:57:06;;;;;;;4.40;2.73;;;11.90;99.90;;;;;;5046977;28;20185;-54
2023/04/19 07:59:32;;;;;;;3.30;2.90;;;11.80;99.90;;;;;;5049953;28;20478;-55
2023/04/19 08:01:58;;;;;;;4.10;2.90;;;11.80;99.90;;;;;;5049629;28;20208;-55
2023/04/19 08:04:24;;;;;;;2.83;2.63;;;11.80;99.90;;;;;;5046767;28;20456;-57
2023/04/19 08:06:49;;;;;;;3.20;2.90;;;11.90;99.90;;;;;;5050321;28;20454;-54
2023/04/19 08:09:15;;;;;;;3.57;2.70;;;12.00;99.90;;;;;;5046570;28;20421;-55
2023/04/19 08:11:42;;;;;;;5.53;3.27;;;11.90;99.90;;;;;;5046109;28;20212;-54
2023/04/19 08:14:07;;;;;;;3.80;3.17;;;11.90;99.90;;;;;;5046655;28;20254;-55
2023/04/19 08:16:33;;;;;;;3.40;3.10;;;11.90;99.90;;;;;;5046636;28;20443;-54
2023/04/19 08:18:58;;;;;;;3.47;3.10;;;12.00;99.90;;;;;;5047830;28;20196;-55
2023/04/19 08:21:25;;;;;;;3.37;2.80;;;12.10;99.90;;;;;;5046806;28;20635;-54
2023/04/19 08:23:51;;;;;;;4.10;3.40;;;11.90;99.90;;;;;;5046694;28;20235;-54
2023/04/19 08:26:16;;;;;;;3.27;2.97;;;12.00;99.90;;;;;;5050702;28;20954;-53
2023/04/19 08:28:42;;;;;;;8.70;3.27;;;12.40;99.90;;;;;;5056115;28;20191;-55
2023/04/19 08:31:09;;;;;;;3.93;3.10;;;12.40;99.90;;;;;;5046358;28;20184;-54
2023/04/19 08:33:34;;;;;;;4.33;3.20;;;12.10;99.90;;;;;;5049067;28;20208;-53
2023/04/19 08:36:00;;;;;;;3.30;2.90;;;11.70;99.90;;;;;;5046118;28;20441;-54
2023/04/19 08:38:26;;;;;;;4.23;3.43;;;11.90;99.90;;;;;;5044504;28;20196;-54
2023/04/19 08:40:53;;;;;;;8.27;3.07;;;12.30;99.90;;;;;;5045403;28;20185;-55
2023/04/19 08:43:20;;;;;;;4.47;3.53;;;12.60;99.90;;;;;;5048642;28;20524;-52
2023/04/19 08:45:48;;;;;;;3.37;3.07;;;12.60;99.90;;;;;;5061802;28;20442;-57
2023/04/19 08:48:15;;;;;;;4.50;3.40;;;12.60;99.90;;;;;;5054260;28;20430;-53
2023/04/19 08:50:41;;;;;;;4.53;2.97;;;12.40;99.90;;;;;;5046432;28;20450;-56
2023/04/19 08:53:09;;;;;;;5.70;3.43;;;12.70;99.90;;;;;;5045988;28;20947;-55
2023/04/19 08:55:37;;;;;;;4.07;2.70;;;12.40;99.90;;;;;;5045638;28;20224;-54
2023/04/19 08:58:03;;;;;;;4.30;3.07;;;12.30;99.90;;;;;;5050098;28;20455;-53
2023/04/19 09:00:30;;;;;;;4.30;3.90;;;12.70;99.90;;;;;;5040247;28;20418;-56
2023/04/19 09:02:57;;;;;;;4.30;3.17;;;12.70;99.90;;;;;;5047486;28;20443;-55
2023/04/19 09:05:22;;;;;;;5.10;3.83;;;12.70;99.90;;;;;;5044583;28;20417;-56
2023/04/19 09:07:48;;;;;;;4.33;3.40;;;12.90;99.90;;;;;;5048144;28;20429;-55
2023/04/19 09:10:19;;;;;;;15.17;5.40;;;12.90;99.90;;;;;;5042837;28;20643;-54
2023/04/19 09:13:03;;;;;;;5.23;3.20;;;12.70;99.90;;;;;;5048250;28;20477;-54
2023/04/19 09:15:40;;;;;;;5.47;3.53;;;12.90;99.90;;;;;;5037502;28;20965;-54
2023/04/19 09:18:09;;;;;;;5.40;3.37;;;13.20;99.90;;;;;;5048310;28;20893;-55
2023/04/19 09:20:40;;;;;;;4.13;3.60;;;13.50;99.90;;;;;;5044171;28;20453;-55
2023/04/19 09:23:10;;;;;;;6.07;3.93;;;13.90;99.90;;;;;;5047828;28;20478;-55
2023/04/19 09:25:36;;;;;;;3.73;3.30;;;14.20;99.90;;;;;;5046049;28;20449;-55
2023/04/19 09:28:12;;;;;;;5.10;4.20;;;14.00;99.90;;;;;;5045144;28;20417;-55
2023/04/19 09:30:38;;;;;;;4.27;3.87;;;13.70;99.90;;;;;;5051866;28;20180;-54
2023/04/19 09:33:04;;;;;;;4.83;3.90;;;13.30;99.90;;;;;;5046227;28;20466;-54
2023/04/19 09:35:46;;;;;;;4.17;3.70;;;13.10;99.90;;;;;;5042660;28;20486;-53
2023/04/19 09:38:12;;;;;;;4.60;3.63;;;13.00;99.90;;;;;;5046145;28;20260;-54
2023/04/19 09:40:39;;;;;;;3.73;3.30;;;13.20;99.90;;;;;;5059615;28;20569;-55
2023/04/19 09:43:04;;;;;;;4.83;3.40;;;13.60;99.90;;;;;;5043001;28;20186;-55
2023/04/19 09:45:44;;;;;;;4.77;3.23;;;13.80;99.90;;;;;;5046155;28;20534;-55
2023/04/19 09:48:11;;;;;;;6.03;4.20;;;14.20;99.90;;;;;;5045196;28;20191;-55
2023/04/19 09:50:51;;;;;;;6.63;3.93;;;14.30;99.90;;;;;;5045661;28;20489;-54
2023/04/19 09:53:18;;;;;;;6.50;3.90;;;14.50;99.90;;;;;;5057959;28;20564;-54
2023/04/19 09:55:48;;;;;;;3.90;3.30;;;14.00;99.90;;;;;;5068195;28;20454;-54
2023/04/19 09:58:15;;;;;;;8.63;4.30;;;13.20;99.90;;;;;;5046966;28;20495;-54
2023/04/19 10:00:43;;;;;;;4.90;3.60;;;13.20;99.90;;;;;;5056475;28;20534;-55
2023/04/19 10:03:09;;;;;;;5.80;4.33;;;13.50;99.90;;;;;;5045910;28;20422;-53
2023/04/19 10:05:41;;;;;;;4.33;3.93;;;13.50;99.90;;;;;;5047328;28;20508;-52
2023/04/19 10:08:08;;;;;;;5.37;3.33;;;13.50;99.90;;;;;;5045425;28;20428;-53
2023/04/19 10:10:35;;;;;;;7.07;4.20;;;13.40;99.90;;;;;;5040001;28;20508;-55
2023/04/19 10:13:03;;;;;;;6.57;4.17;;;13.50;99.90;;;;;;5046365;28;20476;-53
2023/04/19 10:15:35;;;;;;;6.73;4.17;;;13.70;99.90;;;;;;5048358;28;20429;-51
2023/04/19 10:18:01;;;;;;;4.50;3.75;;;13.90;99.90;;;;;;5043881;28;20933;-54
2023/04/19 10:21:09;;;;;;;6.00;3.70;;;14.20;99.90;;;;;;5046605;28;20501;-52
2023/04/19 10:23:36;;;;;;;4.23;3.53;;;14.40;99.90;;;;;;5028751;28;20449;-54
2023/04/19 10:26:02;;;;;;;6.90;3.97;;;14.70;99.90;;;;;;5050580;28;20436;-55
2023/04/19 10:28:31;;;;;;;6.90;4.83;;;14.60;99.90;;;;;;5051438;28;20952;-51
2023/04/19 10:31:01;;;;;;;3.73;3.40;;;14.30;99.90;;;;;;5049954;28;20263;-55
2023/04/19 10:33:30;;;;;;;4.57;3.60;;;14.30;99.90;;;;;;5053166;28;20915;-55
2023/04/19 10:35:57;;;;;;;4.23;3.50;;;13.80;99.90;;;;;;5051006;28;20417;-54
2023/04/19 10:38:40;;;;;;;7.77;5.10;;;13.70;99.90;;;;;;5052408;28;21127;-55
2023/04/19 10:41:10;;;;;;;5.70;4.30;;;13.90;99.90;;;;;;5049402;28;20418;-53
2023/04/19 10:43:38;;;;;;;3.90;3.50;;;14.20;99.90;;;;;;5049770;28;20442;-53
2023/04/19 10:46:08;;;;;;;6.10;4.37;;;14.30;99.90;;;;;;5052080;28;20471;-55
2023/04/19 10:48:40;;;;;;;4.57;3.70;;;14.10;99.90;;;;;;5050364;28;20515;-57
2023/04/19 10:51:19;;;;;;;4.07;3.70;;;13.90;99.90;;;;;;5050210;28;20454;-54
2023/04/19 10:53:50;;;;;;;7.27;3.87;;;13.60;99.90;;;;;;5050466;28;21019;-53
2023/04/19 10:56:32;;;;;;;4.57;4.00;;;13.30;99.90;;;;;;5045468;28;20589;-53
2023/04/19 11:01:45;;;;;;;7.03;3.30;;;12.90;99.90;;;;;;5045883;28;20503;-56
2023/04/19 11:04:16;;;;;;;5.43;3.87;;;12.90;99.90;;;;;;5049107;28;20951;-55
2023/04/19 11:06:51;;;;;;;4.10;3.30;;;12.70;99.90;;;;;;5054368;28;20504;-57
2023/04/19 11:09:24;;;;;;;5.73;3.87;;;12.60;99.90;;;;;;5051645;28;20919;-55
2023/04/19 11:11:51;;;;;;;3.80;3.37;;;12.40;99.90;;;;;;5050518;28;20435;-52
2023/04/19 11:14:19;;;;;;;4.13;3.60;;;12.70;99.90;;;;;;5052709;28;20405;-53
2023/04/19 11:16:45;;;;;;;3.57;3.27;;;13.00;99.90;;;;;;5051988;28;20500;-52
2023/04/19 11:19:23;;;;;;;3.43;3.13;;;13.10;99.90;;;;;;5042937;28;20417;-54
2023/04/19 11:21:49;;;;;;;4.07;3.20;;;13.50;99.90;;;;;;5047972;28;20495;-53
2023/04/19 11:24:17;;;;;;;6.43;4.30;;;13.70;99.90;;;;;;5052246;28;20766;-55
2023/04/19 11:26:44;;;;;;;8.30;5.40;;;13.80;99.90;;;;;;5051956;28;20969;-55
2023/04/19 11:29:10;;;;;;;5.90;3.90;;;14.00;99.90;;;;;;5050207;28;20449;-55
2023/04/19 11:31:36;;;;;;;4.13;3.70;;;13.60;99.90;;;;;;5050196;28;20483;-54
2023/04/19 11:34:02;;;;;;;7.60;4.10;;;13.30;99.90;;;;;;5050551;28;20438;-56
2023/04/19 11:36:30;;;;;;;6.50;3.70;;;13.50;99.90;;;;;;5050710;28;20263;-50
2023/04/19 11:38:56;;;;;;;2.80;2.60;;;13.60;99.90;;;;;;5051654;28;20412;-52
2023/04/19 11:41:22;;;;;;;4.00;3.33;;;13.20;99.90;;;;;;5070556;28;20439;-53
2023/04/19 11:43:48;;;;;;;4.90;3.43;;;12.80;99.90;;;;;;5071650;28;20432;-53
2023/04/19 11:46:14;;;;;;;6.73;3.33;;;12.90;99.90;;;;;;5071156;28;20172;-56
2023/04/19 11:48:51;;;;;;;3.70;2.97;;;13.00;99.90;;;;;;5071172;28;20572;-54
2023/04/19 11:51:17;;;;;;;3.87;3.00;;;13.00;99.90;;;;;;5069646;28;20222;-54
2023/04/19 11:53:42;;;;;;;6.83;3.20;;;12.90;99.90;;;;;;5071179;28;20497;-54
2023/04/19 11:56:08;;;;;;;3.90;3.37;;;12.90;99.90;;;;;;5059017;28;20252;-54
2023/04/19 11:58:44;;;;;;;4.20;3.30;;;12.80;99.90;;;;;;5055207;28;20230;-54
2023/04/19 12:01:19;;;;;;;3.80;3.23;;;12.70;99.90;;;;;;5050067;28;20448;-53
2023/04/19 12:03:48;;;;;;;6.03;4.03;;;12.50;99.90;;;;;;5049335;28;20413;-56
2023/04/19 12:06:22;;;;;;;4.17;2.73;;;12.60;99.90;;;;;;5064233;28;20466;-52
2023/04/19 12:08:50;;;;;;;4.87;3.13;;;12.70;99.90;;;;;;5066819;28;20476;-55
2023/04/19 12:11:23;;;;;;;4.43;3.13;;;13.00;99.90;;;;;;5051108;28;20478;-57
2023/04/19 12:14:10;;;;;;;3.63;3.10;;;13.00;99.90;;;;;;5062529;28;20563;-53
2023/04/19 12:16:36;;;;;;;5.20;2.93;;;13.20;99.90;;;;;;5064133;28;20416;-54
2023/04/19 12:19:19;;;;;;;4.87;3.33;;;13.30;99.90;;;;;;5052285;28;20425;-56
2023/04/19 12:21:45;;;;;;;5.60;3.43;;;13.60;99.90;;;;;;5052723;28;20231;-53
2023/04/19 12:24:14;;;;;;;13.20;3.47;;;13.60;99.90;;;;;;5050864;28;20482;-52
2023/04/19 12:26:54;;;;;;;3.50;2.83;;;13.40;99.90;;;;;;5050773;28;20903;-54
2023/04/19 12:29:20;;;;;;;5.80;3.13;;;13.20;99.90;;;;;;5050490;28;20496;-56
2023/04/19 12:31:45;;;;;;;3.73;3.10;;;13.20;99.90;;;;;;5050710;28;20449;-56
2023/04/19 12:34:11;;;;;;;3.60;3.17;;;13.30;99.90;;;;;;5051500;28;20180;-52
2023/04/19 12:36:36;;;;;;;3.70;3.37;;;13.10;99.90;;;;;;5048405;28;20192;-53
2023/04/19 12:39:02;;;;;;;6.10;3.30;;;13.00;99.90;;;;;;5051245;28;20277;-54
2023/04/19 12:41:28;;;;;;;4.50;3.20;;;13.00;99.90;;;;;;5051237;28;20184;-54
2023/04/19 12:43:53;;;;;;;7.67;4.00;;;13.00;99.90;;;;;;5051200;28;20180;-55
2023/04/19 12:46:19;;;;;;;4.17;3.43;;;13.20;99.90;;;;;;5050715;28;20181;-54
2023/04/19 12:48:45;;;;;;;4.10;3.53;;;13.30;99.90;;;;;;5045164;28;20184;-56
2023/04/19 12:51:10;;;;;;;3.67;3.37;;;13.60;99.90;;;;;;5050248;28;20192;-54
2023/04/19 12:53:36;;;;;;;6.10;3.43;;;13.80;99.90;;;;;;5061744;28;20208;-52